Orgoglio — IJDQ — position and weather

sailwx.info

Track history (hours):
 
Tides and Currents Weather Stations Pressure Air Temp Water Temp Dewpoint Dewpoint Depression Visibility Wind Speed Wind Dir Waves Ship Positions

Orgoglio

Last reported at 2017-Sep-07 10:22 UTC. Time now 2017-Sep-24 05:04 UTC.
Position N 39°40' E 016°31'.
Warning: this ship's position is 16 days out of date.

; draft 2 m.

Type: Fishing. MMSI: 247134150.

Date/timePositionNaut miles runAvg speedWind from/ knotsBaromVisibWave heightAir tempDewpointWater temp
2017-Sep-07 10:22N 39°40' E 016°31'3 5.1
2017-Sep-07 09:50N 39°42' E 016°34'14 2.3
2017-Sep-07 03:54N 39°55' E 016°39'2 2.5
2017-Sep-07 03:08N 39°53' E 016°38'1 2.7
2017-Sep-07 02:39N 39°52' E 016°37'5 0.2
2017-Sep-06 04:46N 39°55' E 016°42'2 5.4
2017-Sep-06 04:28N 39°56' E 016°41'2 2.2
2017-Sep-06 03:44N 39°55' E 016°39'1 2.7
2017-Sep-06 03:18N 39°54' E 016°39'1 2.9
2017-Sep-06 02:59N 39°53' E 016°38'15 0.9
2017-Sep-05 10:33N 39°40' E 016°31'4 2.9
2017-Sep-05 09:05N 39°43' E 016°34'1 2.8
2017-Sep-05 08:47N 39°43' E 016°35'1 2.8
2017-Sep-05 08:30N 39°42' E 016°35'1 2.8
2017-Sep-05 07:59N 39°40' E 016°35'1 2.7
2017-Sep-05 07:30N 39°39' E 016°36'2 2.7
2017-Sep-05 06:51N 39°39' E 016°39'1 2.7
2017-Sep-05 06:24N 39°39' E 016°40'2 2.7
2017-Sep-05 05:50N 39°38' E 016°42'4 6.9
2017-Sep-05 05:19N 39°38' E 016°47'2 3.6
2017-Sep-05 04:53N 39°37' E 016°49'17 0.8
2017-Sep-04 05:41N 39°52' E 016°38'3 2.6
2017-Sep-04 04:25N 39°55' E 016°42'2 3.8
2017-Sep-04 04:00N 39°56' E 016°40'1 1.6
2017-Sep-04 03:30N 39°55' E 016°40'2 2.6
2017-Sep-04 02:53N 39°54' E 016°39'  
2017-Aug-31 13:08N 39°40' E 016°31'1 4.9
2017-Aug-31 13:00N 39°40' E 016°32'5 9.5
2017-Aug-31 12:30N 39°39' E 016°37'5 9.5
2017-Aug-31 12:01N 39°38' E 016°44'4 7.7
2017-Aug-31 11:30N 39°37' E 016°48'1 1.9
2017-Aug-31 10:57N 39°37' E 016°50'1 2.8
2017-Aug-31 10:28N 39°36' E 016°51'1 2.7
2017-Aug-31 10:00N 39°35' E 016°52'2 2.7
2017-Aug-31 09:24N 39°33' E 016°53'2 3.4
2017-Aug-31 08:55N 39°33' E 016°55'3 6.2
2017-Aug-31 08:29N 39°30' E 016°56'  
Track history (hours):
 
Tides and Currents Weather Stations Pressure Air Temp Water Temp Dewpoint Dewpoint Depression Visibility Wind Speed Wind Dir Waves Ship Positions

Orgoglio

Last reported at 2017-Sep-07 10:22 UTC. Time now 2017-Sep-24 05:04 UTC.
Position N 39°40' E 016°31'.
Warning: this ship's position is 16 days out of date.

; draft 2 m.

Type: Fishing. MMSI: 247134150.

Date/timePositionNaut miles runAvg speedWind from/ knotsBaromVisibWave heightAir tempDewpointWater temp
2017-Sep-07 10:22N 39°40' E 016°31'3 5.1
2017-Sep-07 09:50N 39°42' E 016°34'14 2.3
2017-Sep-07 03:54N 39°55' E 016°39'2 2.5
2017-Sep-07 03:08N 39°53' E 016°38'1 2.7
2017-Sep-07 02:39N 39°52' E 016°37'5 0.2
2017-Sep-06 04:46N 39°55' E 016°42'2 5.4
2017-Sep-06 04:28N 39°56' E 016°41'2 2.2
2017-Sep-06 03:44N 39°55' E 016°39'1 2.7
2017-Sep-06 03:18N 39°54' E 016°39'1 2.9
2017-Sep-06 02:59N 39°53' E 016°38'15 0.9
2017-Sep-05 10:33N 39°40' E 016°31'4 2.9
2017-Sep-05 09:05N 39°43' E 016°34'1 2.8
2017-Sep-05 08:47N 39°43' E 016°35'1 2.8
2017-Sep-05 08:30N 39°42' E 016°35'1 2.8
2017-Sep-05 07:59N 39°40' E 016°35'1 2.7
2017-Sep-05 07:30N 39°39' E 016°36'2 2.7
2017-Sep-05 06:51N 39°39' E 016°39'1 2.7
2017-Sep-05 06:24N 39°39' E 016°40'2 2.7
2017-Sep-05 05:50N 39°38' E 016°42'4 6.9
2017-Sep-05 05:19N 39°38' E 016°47'2 3.6
2017-Sep-05 04:53N 39°37' E 016°49'17 0.8
2017-Sep-04 05:41N 39°52' E 016°38'3 2.6
2017-Sep-04 04:25N 39°55' E 016°42'2 3.8
2017-Sep-04 04:00N 39°56' E 016°40'1 1.6
2017-Sep-04 03:30N 39°55' E 016°40'2 2.6
2017-Sep-04 02:53N 39°54' E 016°39'  
2017-Aug-31 13:08N 39°40' E 016°31'1 4.9
2017-Aug-31 13:00N 39°40' E 016°32'5 9.5
2017-Aug-31 12:30N 39°39' E 016°37'5 9.5
2017-Aug-31 12:01N 39°38' E 016°44'4 7.7
2017-Aug-31 11:30N 39°37' E 016°48'1 1.9
2017-Aug-31 10:57N 39°37' E 016°50'1 2.8
2017-Aug-31 10:28N 39°36' E 016°51'1 2.7
2017-Aug-31 10:00N 39°35' E 016°52'2 2.7
2017-Aug-31 09:24N 39°33' E 016°53'2 3.4
2017-Aug-31 08:55N 39°33' E 016°55'3 6.2
2017-Aug-31 08:29N 39°30' E 016°56'  

Dump ship's entire track history